createdAt,value
2022-11-03T00:02:08.047Z,2.53
2022-11-03T00:04:34.907Z,2.30
2022-11-03T00:07:01.731Z,2.40
2022-11-03T00:09:28.503Z,2.37
2022-11-03T00:11:55.321Z,2.80
2022-11-03T00:14:22.182Z,2.70
2022-11-03T00:16:49.279Z,2.47
2022-11-03T00:19:17.310Z,2.20
2022-11-03T00:21:44.839Z,2.63
2022-11-03T00:24:12.858Z,2.60
2022-11-03T00:26:39.804Z,2.47
2022-11-03T00:29:13.199Z,2.57
2022-11-03T00:31:43.309Z,2.77
2022-11-03T00:34:11.009Z,2.73
2022-11-03T00:36:43.734Z,2.80
2022-11-03T00:39:11.297Z,2.70
2022-11-03T00:41:38.874Z,2.43
2022-11-03T00:44:06.155Z,3.10
2022-11-03T00:46:35.944Z,2.70
2022-11-03T00:49:05.014Z,1.93
2022-11-03T00:51:34.358Z,1.90
2022-11-03T00:54:03.451Z,2.00
2022-11-03T00:56:39.943Z,1.63
2022-11-03T00:59:09.159Z,2.10
2022-11-03T01:01:45.297Z,2.43
2022-11-03T01:04:32.930Z,2.70
2022-11-03T01:07:01.168Z,2.13
2022-11-03T01:09:33.854Z,1.97
2022-11-03T01:12:13.895Z,1.90
2022-11-03T01:14:46.204Z,1.80
2022-11-03T01:17:25.781Z,1.80
2022-11-03T01:19:53.009Z,1.77
2022-11-03T01:22:20.648Z,1.93
2022-11-03T01:24:48.290Z,2.00
2022-11-03T01:27:18.767Z,1.40
2022-11-03T01:29:46.017Z,2.10
2022-11-03T01:32:13.247Z,1.80
2022-11-03T01:34:40.309Z,2.60
2022-11-03T01:37:07.436Z,1.80
2022-11-03T01:39:34.453Z,4.10
2022-11-03T01:42:01.394Z,4.97
2022-11-03T01:44:40.137Z,3.10
2022-11-03T01:47:18.722Z,3.43
2022-11-03T01:50:14.843Z,2.57
2022-11-03T01:52:51.355Z,2.40
2022-11-03T01:55:26.549Z,2.63
2022-11-03T01:58:03.363Z,2.23
2022-11-03T02:00:30.180Z,2.47
2022-11-03T02:02:57.153Z,2.23
2022-11-03T02:05:25.909Z,2.20
2022-11-03T02:08:18.282Z,2.20
2022-11-03T02:10:48.628Z,2.70
2022-11-03T02:13:22.256Z,3.40
2022-11-03T02:15:56.370Z,3.77
2022-11-03T02:18:29.511Z,5.13
2022-11-03T02:21:16.226Z,6.20
2022-11-03T02:24:12.924Z,6.23
2022-11-03T02:26:41.040Z,6.20
2022-11-03T02:29:07.896Z,6.20
2022-11-03T02:31:42.648Z,5.73
2022-11-03T02:34:31.162Z,6.53
2022-11-03T02:37:16.978Z,6.30
2022-11-03T02:39:47.156Z,6.60
2022-11-03T02:42:15.369Z,6.50
2022-11-03T02:44:44.672Z,6.47
2022-11-03T02:47:14.115Z,6.43
2022-11-03T02:49:51.162Z,6.33
2022-11-03T02:52:45.123Z,5.23
2022-11-03T02:55:14.684Z,5.37
2022-11-03T02:57:53.015Z,3.97
2022-11-03T03:00:20.988Z,2.73
2022-11-03T03:02:54.003Z,2.40
2022-11-03T03:05:25.521Z,2.67
2022-11-03T03:07:58.077Z,2.33
2022-11-03T03:10:30.891Z,2.30
2022-11-03T03:12:58.734Z,2.40
2022-11-03T03:15:57.689Z,2.80
2022-11-03T03:18:59.155Z,6.20
2022-11-03T03:21:32.554Z,5.70
2022-11-03T03:24:09.786Z,5.03
2022-11-03T03:26:44.365Z,4.30
2022-11-03T03:29:35.331Z,3.97
2022-11-03T03:32:07.720Z,5.17
2022-11-03T03:34:38.392Z,3.83
2022-11-03T03:37:06.881Z,5.43
2022-11-03T03:39:38.403Z,5.00
2022-11-03T03:42:08.797Z,4.50
2022-11-03T03:44:37.894Z,6.63
2022-11-03T03:47:21.400Z,4.40
2022-11-03T03:49:48.349Z,7.13
2022-11-03T03:52:16.095Z,5.13
2022-11-03T03:54:42.866Z,3.70
2022-11-03T03:57:16.156Z,3.30
2022-11-03T03:59:44.196Z,3.87
2022-11-03T04:02:12.520Z,2.63
2022-11-03T04:04:39.927Z,2.50
2022-11-03T04:07:25.469Z,2.80
2022-11-03T04:09:52.690Z,2.83
2022-11-03T04:12:37.840Z,4.17
2022-11-03T04:15:24.026Z,4.73
2022-11-03T04:18:10.785Z,6.37
2022-11-03T04:20:55.992Z,5.80
2022-11-03T04:23:22.812Z,6.17
2022-11-03T04:25:54.293Z,4.97
2022-11-03T04:28:21.471Z,6.00
2022-11-03T04:30:48.374Z,6.83
2022-11-03T04:33:20.026Z,3.40
2022-11-03T04:35:48.228Z,4.67
2022-11-03T04:38:14.898Z,4.63
2022-11-03T04:40:55.149Z,4.70
2022-11-03T04:43:31.568Z,4.53
2022-11-03T04:45:58.476Z,4.90
2022-11-03T04:48:27.812Z,4.17
2022-11-03T04:50:58.766Z,4.53
2022-11-03T04:53:31.322Z,3.33
2022-11-03T04:56:00.457Z,3.13
2022-11-03T04:58:35.327Z,3.67
2022-11-03T05:01:04.194Z,3.00
2022-11-03T05:03:34.986Z,3.70
2022-11-03T05:06:22.235Z,3.20
2022-11-03T05:08:54.638Z,3.63
2022-11-03T05:11:42.422Z,4.17
2022-11-03T05:14:22.561Z,4.83
2022-11-03T05:16:53.540Z,5.20
2022-11-03T05:19:27.666Z,4.60
2022-11-03T05:21:56.389Z,5.13
2022-11-03T05:24:26.026Z,5.63
2022-11-03T05:26:56.180Z,4.63
2022-11-03T05:29:35.401Z,4.73
2022-11-03T05:32:02.436Z,4.60
2022-11-03T05:34:52.792Z,4.43
2022-11-03T05:37:26.346Z,4.57
2022-11-03T05:40:03.891Z,4.73
2022-11-03T05:42:40.271Z,4.00
2022-11-03T05:45:22.879Z,6.40
2022-11-03T05:47:53.713Z,6.13
2022-11-03T05:50:24.988Z,7.07
2022-11-03T05:53:04.171Z,8.10
2022-11-03T05:55:34.092Z,6.97
2022-11-03T05:58:37.235Z,8.03
2022-11-03T06:01:36.843Z,8.13
2022-11-03T06:04:26.503Z,8.63
2022-11-03T06:07:00.142Z,8.63
2022-11-03T06:09:27.409Z,11.63
2022-11-03T06:11:57.697Z,16.03
2022-11-03T06:14:27.093Z,11.77
2022-11-03T06:17:00.658Z,10.87
2022-11-03T06:19:32.416Z,10.93
2022-11-03T06:22:15.729Z,9.63
2022-11-03T06:24:43.563Z,9.87
2022-11-03T06:27:19.058Z,8.77
2022-11-03T06:30:32.635Z,10.97
2022-11-03T06:33:17.643Z,10.70
2022-11-03T06:35:44.722Z,16.60
2022-11-03T06:38:22.233Z,15.13
2022-11-03T06:40:53.513Z,14.30
2022-11-03T06:43:28.658Z,12.77
2022-11-03T06:45:58.737Z,19.23
2022-11-03T06:48:30.263Z,11.50
2022-11-03T06:50:59.378Z,14.07
2022-11-03T06:53:31.663Z,14.57
2022-11-03T06:55:59.492Z,11.80
2022-11-03T06:58:31.035Z,12.97
2022-11-03T07:01:03.559Z,16.43
2022-11-03T07:03:33.624Z,13.20
2022-11-03T07:06:42.104Z,12.50
2022-11-03T07:09:21.641Z,14.37
2022-11-03T07:11:55.437Z,16.40
2022-11-03T07:14:29.515Z,19.53
2022-11-03T07:17:01.110Z,14.33
2022-11-03T07:19:33.782Z,14.93
2022-11-03T07:22:21.268Z,18.47
2022-11-03T07:24:52.766Z,16.47
2022-11-03T07:27:35.104Z,22.03
2022-11-03T07:30:21.870Z,18.53
2022-11-03T07:32:54.204Z,20.63
2022-11-03T07:35:47.018Z,20.53
2022-11-03T07:38:22.872Z,18.37
2022-11-03T07:40:51.764Z,22.37
2022-11-03T07:43:35.887Z,20.70
2022-11-03T07:46:04.995Z,23.03
2022-11-03T07:48:58.907Z,19.33
2022-11-03T07:51:40.463Z,25.40
2022-11-03T07:54:20.524Z,21.23
2022-11-03T07:57:14.457Z,21.10
2022-11-03T07:59:44.510Z,21.77
2022-11-03T08:02:48.662Z,21.43
2022-11-03T08:05:15.600Z,23.33
2022-11-03T08:07:42.418Z,20.23
2022-11-03T08:10:09.966Z,26.23
2022-11-03T08:12:36.772Z,25.27
2022-11-03T08:15:03.905Z,19.80
2022-11-03T08:17:30.704Z,19.93
2022-11-03T08:19:57.465Z,20.17
2022-11-03T08:22:25.938Z,20.37
2022-11-03T08:24:53.139Z,19.77
2022-11-03T08:27:20.058Z,19.57
2022-11-03T08:29:47.107Z,19.10
2022-11-03T08:32:13.906Z,18.73
2022-11-03T08:34:40.693Z,19.20
2022-11-03T08:37:07.485Z,18.43
2022-11-03T08:39:36.093Z,19.37
2022-11-03T08:42:02.985Z,17.43
2022-11-03T08:44:29.768Z,18.10
2022-11-03T08:46:56.596Z,19.63
2022-11-03T08:49:23.395Z,18.57
2022-11-03T08:51:50.202Z,18.10
2022-11-03T08:54:17.142Z,18.23
2022-11-03T08:56:46.322Z,22.70
2022-11-03T08:59:13.179Z,22.70
2022-11-03T09:01:40.061Z,19.87
2022-11-03T09:04:06.947Z,19.60
2022-11-03T09:06:33.853Z,19.13
2022-11-03T09:11:48.052Z,15.70
2022-11-03T09:14:14.920Z,51.93
2022-11-03T09:16:41.727Z,19.97
2022-11-03T09:19:08.516Z,20.40
2022-11-03T09:21:35.651Z,26.00
2022-11-03T09:24:02.419Z,16.53
2022-11-03T09:26:29.195Z,14.43
2022-11-03T09:28:55.987Z,13.13
2022-11-03T09:31:25.869Z,11.33
2022-11-03T09:33:52.621Z,11.37
2022-11-03T09:36:19.411Z,11.27
2022-11-03T09:38:46.190Z,10.10
2022-11-03T09:41:26.400Z,9.70
2022-11-03T09:43:58.328Z,10.67
2022-11-03T09:46:26.927Z,11.27
2022-11-03T09:48:55.411Z,12.53
2022-11-03T09:51:23.781Z,12.10
2022-11-03T09:53:50.618Z,11.43
2022-11-03T09:56:22.410Z,11.07
2022-11-03T09:58:54.012Z,10.37
2022-11-03T10:01:21.495Z,12.07
2022-11-03T10:03:48.414Z,9.37
2022-11-03T10:06:17.452Z,9.07
2022-11-03T10:08:46.286Z,9.30
2022-11-03T10:11:13.446Z,9.13
2022-11-03T10:13:47.458Z,9.23
2022-11-03T10:16:19.072Z,10.27
2022-11-03T10:18:45.989Z,9.67
2022-11-03T10:21:20.711Z,8.80
2022-11-03T10:23:47.571Z,8.60
2022-11-03T10:26:20.131Z,8.73
2022-11-03T10:29:25.777Z,9.53
2022-11-03T10:31:55.684Z,9.70
2022-11-03T10:34:36.403Z,15.17
2022-11-03T10:37:17.247Z,10.00
2022-11-03T10:39:45.598Z,11.20
2022-11-03T10:42:34.995Z,9.67
2022-11-03T10:45:17.840Z,10.93
2022-11-03T10:47:44.730Z,11.50
2022-11-03T10:50:31.803Z,12.00
2022-11-03T10:52:58.732Z,13.07
2022-11-03T10:55:27.024Z,14.10
2022-11-03T10:57:58.074Z,15.23
2022-11-03T11:00:25.424Z,14.70
2022-11-03T11:03:00.860Z,12.97
2022-11-03T11:05:28.222Z,13.97
2022-11-03T11:07:56.542Z,16.10
2022-11-03T11:10:31.552Z,15.43
2022-11-03T11:13:21.612Z,15.73
2022-11-03T11:15:53.803Z,14.87
2022-11-03T11:18:29.795Z,15.03
2022-11-03T11:20:58.091Z,16.40
2022-11-03T11:23:27.825Z,14.63
2022-11-03T11:26:37.748Z,14.50
2022-11-03T11:29:10.986Z,14.80
2022-11-03T11:31:45.462Z,12.83
2022-11-03T11:34:21.148Z,13.83
2022-11-03T11:37:10.711Z,11.60
2022-11-03T11:39:44.078Z,11.73
2022-11-03T11:42:18.591Z,11.90
2022-11-03T11:44:50.494Z,11.60
2022-11-03T11:47:42.894Z,11.30
2022-11-03T11:50:10.171Z,11.17
2022-11-03T11:52:58.216Z,10.73
2022-11-03T11:55:25.035Z,9.90
2022-11-03T11:57:53.071Z,10.63
2022-11-03T12:00:22.517Z,10.33
2022-11-03T12:02:50.451Z,11.37
2022-11-03T12:05:24.279Z,11.27
2022-11-03T12:07:51.124Z,11.23
2022-11-03T12:10:26.128Z,10.30
2022-11-03T12:12:53.971Z,10.50
2022-11-03T12:15:56.493Z,10.40
2022-11-03T12:18:40.200Z,10.23
2022-11-03T12:21:34.143Z,10.20
2022-11-03T12:24:00.924Z,11.30
2022-11-03T12:26:27.596Z,11.60
2022-11-03T12:28:54.547Z,11.80
2022-11-03T12:31:21.564Z,12.77
2022-11-03T12:33:48.346Z,13.93
2022-11-03T12:36:15.215Z,13.03
2022-11-03T12:38:42.383Z,14.47
2022-11-03T12:41:21.326Z,18.23
2022-11-03T12:43:49.430Z,14.33
2022-11-03T12:46:18.934Z,13.80
2022-11-03T12:48:47.961Z,14.60
2022-11-03T12:51:17.717Z,14.13
2022-11-03T12:53:45.285Z,14.53
2022-11-03T12:56:14.193Z,14.60
2022-11-03T12:58:42.198Z,14.60
2022-11-03T13:01:09.837Z,14.80
2022-11-03T13:03:37.306Z,11.23
2022-11-03T13:06:09.868Z,9.87
2022-11-03T13:08:37.577Z,10.40
2022-11-03T13:11:24.868Z,11.07
2022-11-03T13:13:52.900Z,10.43
2022-11-03T13:16:20.082Z,10.27
2022-11-03T13:18:47.057Z,10.83
2022-11-03T13:21:13.944Z,11.47
2022-11-03T13:23:41.414Z,11.93
2022-11-03T13:26:08.249Z,10.80
2022-11-03T13:28:35.351Z,11.63
2022-11-03T13:31:02.389Z,11.27
2022-11-03T13:33:29.244Z,11.57
2022-11-03T13:35:56.120Z,11.87
2022-11-03T13:38:23.040Z,11.70
2022-11-03T13:40:56.945Z,11.27
2022-11-03T13:43:24.936Z,12.03
2022-11-03T13:45:52.905Z,12.40
2022-11-03T13:49:20.035Z,12.03
2022-11-03T13:51:07.362Z,12.60
2022-11-03T13:56:22.099Z,12.13
2022-11-03T14:01:38.755Z,13.30
2022-11-03T14:06:52.653Z,13.23
2022-11-03T14:09:19.445Z,12.60
2022-11-03T14:12:05.136Z,13.03
2022-11-03T14:14:31.984Z,12.73
2022-11-03T14:16:58.751Z,12.80
2022-11-03T14:19:34.494Z,13.00
2022-11-03T14:22:04.861Z,12.63
2022-11-03T14:24:31.668Z,11.87
2022-11-03T14:26:58.659Z,12.07
2022-11-03T14:29:25.459Z,12.27
2022-11-03T14:31:52.252Z,12.77
2022-11-03T14:34:19.126Z,12.23
2022-11-03T14:36:46.004Z,12.53
2022-11-03T14:39:12.864Z,13.13
2022-11-03T14:41:57.946Z,11.60
2022-11-03T14:44:24.744Z,11.87
2022-11-03T14:46:51.570Z,11.83
2022-11-03T14:49:18.347Z,12.17
2022-11-03T14:51:45.113Z,12.40
2022-11-03T14:54:11.964Z,12.03
2022-11-03T14:56:38.756Z,11.83
2022-11-03T14:59:05.540Z,11.90
2022-11-03T15:01:33.068Z,11.77
2022-11-03T15:03:59.891Z,12.37
2022-11-03T15:06:26.705Z,12.50
2022-11-03T15:08:56.476Z,12.10
2022-11-03T15:11:23.703Z,12.27
2022-11-03T15:13:52.596Z,12.13
2022-11-03T15:16:19.703Z,12.00
2022-11-03T15:18:46.485Z,12.17
2022-11-03T15:21:13.999Z,12.33
2022-11-03T15:26:27.726Z,11.63
2022-11-03T15:28:54.600Z,11.73
2022-11-03T15:31:23.509Z,12.47
2022-11-03T15:33:50.324Z,13.10
2022-11-03T15:36:17.161Z,13.63
2022-11-03T15:38:44.031Z,12.80
2022-11-03T15:41:16.614Z,12.70
2022-11-03T15:43:50.640Z,12.67
2022-11-03T15:46:18.562Z,11.80
2022-11-03T15:48:45.973Z,11.93
2022-11-03T15:51:12.893Z,11.03
2022-11-03T15:53:39.934Z,12.57
2022-11-03T15:56:07.675Z,13.00
2022-11-03T15:58:34.660Z,13.33
2022-11-03T16:01:03.181Z,13.90
2022-11-03T16:03:31.882Z,12.83
2022-11-03T16:05:59.243Z,13.13
2022-11-03T16:08:26.265Z,13.73
2022-11-03T16:10:57.676Z,13.00
2022-11-03T16:13:25.599Z,14.37
2022-11-03T16:15:54.379Z,15.07
2022-11-03T16:18:21.626Z,14.67
2022-11-03T16:20:48.461Z,15.07
2022-11-03T16:23:15.628Z,14.27
2022-11-03T16:25:42.433Z,14.00
2022-11-03T16:28:09.674Z,13.70
2022-11-03T16:30:38.401Z,14.63
2022-11-03T16:33:05.632Z,14.47
2022-11-03T16:35:32.549Z,15.20
2022-11-03T16:37:59.567Z,15.73
2022-11-03T16:40:26.436Z,15.37
2022-11-03T16:42:53.312Z,16.23
2022-11-03T16:45:23.426Z,17.07
2022-11-03T16:47:51.033Z,16.10
2022-11-03T16:50:18.942Z,17.00
2022-11-03T16:52:48.010Z,16.33
2022-11-03T16:55:16.934Z,16.07
2022-11-03T16:57:45.923Z,16.57
2022-11-03T17:00:17.198Z,15.03
2022-11-03T17:02:44.407Z,15.77
2022-11-03T17:05:12.611Z,16.20
2022-11-03T17:07:39.703Z,15.87
2022-11-03T17:10:07.646Z,16.73
2022-11-03T17:12:34.478Z,17.50
2022-11-03T17:15:01.303Z,17.50
2022-11-03T17:17:28.092Z,18.07
2022-11-03T17:19:54.896Z,17.40
2022-11-03T17:22:22.232Z,18.23
2022-11-03T17:24:49.543Z,17.60
2022-11-03T17:27:22.565Z,17.07
2022-11-03T17:30:01.852Z,17.00
2022-11-03T17:32:31.916Z,18.03
2022-11-03T17:34:59.227Z,17.73
2022-11-03T17:37:26.610Z,16.73
2022-11-03T17:39:53.556Z,17.40
2022-11-03T17:42:26.186Z,17.20
2022-11-03T17:44:57.070Z,17.53
2022-11-03T17:47:24.830Z,17.10
2022-11-03T17:49:51.676Z,16.63
2022-11-03T17:52:28.268Z,16.27
2022-11-03T17:54:58.827Z,17.40
2022-11-03T17:57:26.961Z,16.80
2022-11-03T17:59:56.243Z,17.87
2022-11-03T18:02:30.085Z,17.63
2022-11-03T18:05:15.444Z,16.43
2022-11-03T18:07:45.800Z,17.57
2022-11-03T18:10:12.801Z,18.23
2022-11-03T18:13:05.578Z,17.80
2022-11-03T18:15:34.099Z,17.73
2022-11-03T18:18:02.267Z,18.23
2022-11-03T18:20:30.910Z,17.27
2022-11-03T18:23:23.435Z,17.57
2022-11-03T18:25:51.431Z,17.63
2022-11-03T18:28:19.989Z,17.40
2022-11-03T18:30:49.734Z,18.47
2022-11-03T18:33:29.834Z,17.47
2022-11-03T18:35:57.246Z,17.33
2022-11-03T18:38:26.311Z,17.27
2022-11-03T18:40:53.387Z,17.73
2022-11-03T18:43:25.418Z,18.00
2022-11-03T18:45:53.138Z,17.83
2022-11-03T18:48:20.809Z,17.23
2022-11-03T18:50:50.573Z,18.50
2022-11-03T18:53:21.392Z,17.27
2022-11-03T18:55:48.773Z,17.00
2022-11-03T18:58:23.086Z,16.90
2022-11-03T19:00:50.889Z,16.43
2022-11-03T19:03:21.887Z,17.00
2022-11-03T19:05:51.475Z,17.57
2022-11-03T19:08:24.530Z,17.10
2022-11-03T19:10:53.886Z,17.37
2022-11-03T19:13:32.860Z,16.20
2022-11-03T19:16:02.974Z,15.77
2022-11-03T19:18:34.827Z,17.97
2022-11-03T19:21:01.627Z,16.73
2022-11-03T19:23:28.418Z,18.20
2022-11-03T19:25:59.816Z,26.80
2022-11-03T19:28:29.714Z,22.40
2022-11-03T19:30:58.062Z,21.47
2022-11-03T19:33:28.274Z,20.20
2022-11-03T19:35:57.832Z,18.90
2022-11-03T19:38:25.455Z,18.13
2022-11-03T19:41:11.290Z,19.63
2022-11-03T19:43:38.109Z,19.40
2022-11-03T19:46:05.313Z,19.33
2022-11-03T19:48:33.836Z,19.07
2022-11-03T19:51:00.879Z,20.07
2022-11-03T19:53:30.258Z,20.20
2022-11-03T19:55:57.554Z,20.23
2022-11-03T19:58:27.565Z,20.60
2022-11-03T20:00:55.821Z,21.07
2022-11-03T20:03:24.178Z,20.07
2022-11-03T20:05:54.580Z,19.33
2022-11-03T20:08:25.935Z,19.83
2022-11-03T20:10:53.417Z,19.73
2022-11-03T20:13:24.208Z,18.27
2022-11-03T20:15:57.379Z,19.00
2022-11-03T20:18:27.370Z,19.57
2022-11-03T20:20:54.347Z,18.60
2022-11-03T20:23:29.776Z,19.60
2022-11-03T20:25:57.009Z,20.00
2022-11-03T20:28:30.298Z,21.60
2022-11-03T20:30:59.610Z,21.40
2022-11-03T20:33:26.694Z,21.07
2022-11-03T20:35:54.703Z,19.67
2022-11-03T20:38:22.852Z,19.37
2022-11-03T20:40:55.607Z,18.90
2022-11-03T20:43:27.892Z,18.63
2022-11-03T20:45:55.174Z,18.83
2022-11-03T20:48:23.619Z,18.33
2022-11-03T20:50:50.704Z,18.27
2022-11-03T20:53:21.424Z,18.40
2022-11-03T20:55:48.408Z,18.10
2022-11-03T20:58:17.596Z,19.40
2022-11-03T21:00:46.735Z,20.03
2022-11-03T21:03:37.594Z,19.73
2022-11-03T21:06:15.572Z,19.13
2022-11-03T21:08:44.068Z,20.87
2022-11-03T21:11:24.115Z,21.60
2022-11-03T21:14:01.073Z,22.50
2022-11-03T21:16:48.438Z,21.40
2022-11-03T21:19:39.978Z,22.27
2022-11-03T21:25:16.800Z,21.27
2022-11-03T21:27:43.962Z,23.30
2022-11-03T21:30:13.203Z,24.53
2022-11-03T21:32:40.543Z,24.13
2022-11-03T21:35:14.215Z,25.27
2022-11-03T21:37:41.007Z,23.47
2022-11-03T21:40:08.776Z,25.47
2022-11-03T21:42:54.241Z,25.97
2022-11-03T21:45:21.054Z,23.93
2022-11-03T21:48:10.271Z,24.57
2022-11-03T21:50:39.793Z,22.90
2022-11-03T21:53:07.309Z,22.03
2022-11-03T21:55:34.749Z,22.40
2022-11-03T21:58:02.497Z,22.17
2022-11-03T22:00:30.900Z,21.23
2022-11-03T22:02:58.991Z,21.03
2022-11-03T22:05:26.465Z,22.13
2022-11-03T22:07:53.620Z,21.53
2022-11-03T22:10:20.542Z,21.37
2022-11-03T22:12:47.324Z,21.20
2022-11-03T22:15:32.797Z,20.67
2022-11-03T22:18:06.937Z,20.93
2022-11-03T22:20:55.153Z,20.10
2022-11-03T22:23:40.465Z,22.37
2022-11-03T22:26:30.732Z,22.93
2022-11-03T22:29:20.061Z,23.20
2022-11-03T22:31:46.903Z,21.47
2022-11-03T22:34:32.636Z,22.77
2022-11-03T22:36:59.456Z,20.90
2022-11-03T22:39:44.834Z,21.03
2022-11-03T22:42:31.175Z,20.97
2022-11-03T22:45:16.412Z,20.40
2022-11-03T22:47:43.291Z,20.50
2022-11-03T22:50:10.396Z,20.10
2022-11-03T22:52:37.279Z,20.20
2022-11-03T22:55:04.628Z,20.13
2022-11-03T22:57:31.438Z,21.00
2022-11-03T22:59:58.228Z,19.57
2022-11-03T23:02:25.085Z,19.57
2022-11-03T23:04:52.027Z,19.07
2022-11-03T23:07:18.798Z,20.17
2022-11-03T23:09:45.944Z,20.30
2022-11-03T23:12:12.741Z,20.67
2022-11-03T23:14:58.000Z,19.67
2022-11-03T23:17:44.757Z,19.53
2022-11-03T23:20:29.812Z,20.77
2022-11-03T23:22:56.602Z,19.73
2022-11-03T23:25:23.434Z,19.80
2022-11-03T23:27:50.206Z,20.10
2022-11-03T23:30:16.968Z,19.20
2022-11-03T23:32:43.820Z,19.43
2022-11-03T23:35:10.689Z,19.63
2022-11-03T23:37:37.456Z,18.83
2022-11-03T23:40:04.522Z,20.23
2022-11-03T23:42:31.304Z,19.47
2022-11-03T23:45:16.758Z,19.20
2022-11-03T23:48:01.893Z,19.10
2022-11-03T23:50:28.675Z,17.43
2022-11-03T23:52:55.466Z,17.67
2022-11-03T23:55:22.241Z,15.03
2022-11-03T23:58:07.821Z,15.83
